Time,TemperatureF,DewpointF,PressureIn,WindDirection,WindDirectionDegrees,WindSpeedMPH,WindSpeedGustMPH,Humidity,HourlyPrecipIn,Conditions,Clouds,dailyrainin,SoftwareType,DateUTC
2013-01-23 00:02:00,33.0,14.0,30.03,NW,305,3.0,4.0,45,0.00,,,0.00,,2013-01-23 07:02:00,
2013-01-23 00:12:00,33.0,14.0,30.03,NW,305,3.0,4.0,45,0.00,,,0.00,,2013-01-23 07:12:00,
2013-01-23 00:22:00,33.0,15.0,30.03,WNW,289,1.0,7.0,46,0.00,,,0.00,,2013-01-23 07:22:00,
2013-01-23 00:33:00,32.0,14.0,30.02,WNW,290,3.0,5.0,47,0.00,,,0.00,,2013-01-23 07:33:00,
2013-01-23 00:42:00,32.0,14.0,30.02,WNW,290,3.0,5.0,47,0.00,,,0.00,,2013-01-23 07:42:00,
2013-01-23 00:52:00,32.0,15.0,30.02,West,281,3.0,4.0,48,0.00,,,0.00,,2013-01-23 07:52:00,
2013-01-23 01:02:00,31.0,15.0,30.02,West,280,2.0,5.0,50,0.00,,,0.00,,2013-01-23 08:02:00,
2013-01-23 01:12:00,31.0,15.0,30.02,West,280,2.0,5.0,50,0.00,,,0.00,,2013-01-23 08:12:00,
2013-01-23 01:22:00,30.0,15.0,30.02,West,280,1.0,3.0,52,0.00,,,0.00,,2013-01-23 08:22:00,
2013-01-23 01:32:00,31.0,13.0,30.02,WNW,286,3.0,7.0,47,0.00,,,0.00,,2013-01-23 08:32:00,
2013-01-23 01:42:00,31.0,13.0,30.02,WNW,286,3.0,7.0,47,0.00,,,0.00,,2013-01-23 08:42:00,
2013-01-23 01:52:00,31.0,13.0,30.02,WNW,284,3.0,6.0,47,0.00,,,0.00,,2013-01-23 08:52:00,
2013-01-23 02:02:00,31.0,14.0,30.02,West,259,3.0,6.0,48,0.00,,,0.00,,2013-01-23 09:02:00,
2013-01-23 02:22:00,39.0,8.0,30.02,SW,219,19.0,30.0,27,0.00,,,0.00,,2013-01-23 09:22:00,
2013-01-23 02:32:00,46.0,6.0,30.02,WSW,246,12.0,21.0,19,0.00,,,0.00,,2013-01-23 09:32:00,
2013-01-23 02:43:00,46.0,6.0,30.02,WSW,246,12.0,21.0,19,0.00,,,0.00,,2013-01-23 09:43:00,
2013-01-23 02:52:00,47.0,4.0,30.01,SSW,194,16.0,26.0,17,0.00,,,0.00,,2013-01-23 09:52:00,
2013-01-23 03:02:00,44.0,10.0,30.02,ESE,112,1.0,18.0,24,0.00,,,0.00,,2013-01-23 10:02:00,
2013-01-23 03:12:00,44.0,10.0,30.02,ESE,112,1.0,18.0,24,0.00,,,0.00,,2013-01-23 10:12:00,
2013-01-23 03:22:00,44.0,7.0,30.02,SW,214,9.0,20.0,21,0.00,,,0.00,,2013-01-23 10:22:00,
2013-01-23 03:32:00,41.0,8.0,30.01,SSW,202,12.0,19.0,25,0.00,,,0.00,,2013-01-23 10:32:00,
2013-01-23 03:42:00,41.0,8.0,30.01,SSW,202,12.0,19.0,25,0.00,,,0.00,,2013-01-23 10:42:00,
2013-01-23 03:52:00,34.0,11.0,30.03,NE,41,5.0,14.0,38,0.00,,,0.00,,2013-01-23 10:52:00,
2013-01-23 04:02:00,32.0,12.0,30.02,ENE,72,5.0,8.0,42,0.00,,,0.00,,2013-01-23 11:02:00,
2013-01-23 04:11:00,32.0,12.0,30.02,ENE,72,5.0,8.0,42,0.00,,,0.00,,2013-01-23 11:11:00,
2013-01-23 04:22:00,30.0,11.0,30.02,North,355,3.0,7.0,44,0.00,,,0.00,,2013-01-23 11:22:00,
2013-01-23 04:32:00,31.0,12.0,30.02,NNW,342,1.0,4.0,44,0.00,,,0.00,,2013-01-23 11:32:00,
2013-01-23 04:52:00,30.0,11.0,30.01,NNW,339,0.0,4.0,45,0.00,,,0.00,,2013-01-23 11:52:00,
2013-01-23 05:03:00,29.0,10.0,30.01,West,275,1.0,5.0,45,0.00,,,0.00,,2013-01-23 12:03:00,
2013-01-23 05:22:00,29.0,11.0,30.01,West,275,1.0,5.0,47,0.00,,,0.00,,2013-01-23 12:22:00,
2013-01-23 05:33:00,31.0,10.0,30.00,West,265,1.0,6.0,41,0.00,,,0.00,,2013-01-23 12:33:00,
2013-01-23 05:52:00,31.0,11.0,30.02,NNW,339,3.0,8.0,43,0.00,,,0.00,,2013-01-23 12:52:00,
2013-01-23 06:03:00,30.0,11.0,30.02,WSW,253,2.0,4.0,45,0.00,,,0.00,,2013-01-23 13:03:00,
2013-01-23 06:22:00,32.0,10.0,30.02,WNW,302,6.0,9.0,40,0.00,,,0.00,,2013-01-23 13:22:00,
2013-01-23 06:33:00,34.0,9.0,30.02,WNW,293,8.0,13.0,34,0.00,,,0.00,,2013-01-23 13:33:00,
2013-01-23 06:42:00,34.0,9.0,30.02,WNW,293,8.0,13.0,34,0.00,,,0.00,,2013-01-23 13:42:00,
2013-01-23 06:52:00,35.0,9.0,30.02,WNW,284,6.0,11.0,33,0.00,,,0.00,,2013-01-23 13:52:00,
2013-01-23 07:02:00,34.0,7.0,30.03,SSE,149,2.0,12.0,32,0.00,,,0.00,,2013-01-23 14:02:00,
2013-01-23 07:12:00,34.0,7.0,30.03,SSE,149,2.0,12.0,32,0.00,,,0.00,,2013-01-23 14:12:00,
2013-01-23 07:23:00,34.0,9.0,30.03,NE,40,4.0,9.0,34,0.00,,,0.00,,2013-01-23 14:23:00,
2013-01-23 07:33:00,33.0,8.0,30.03,West,277,0.0,6.0,35,0.00,,,0.00,,2013-01-23 14:33:00,
2013-01-23 07:42:00,33.0,8.0,30.03,West,277,0.0,6.0,35,0.00,,,0.00,,2013-01-23 14:42:00,
2013-01-23 07:52:00,31.0,11.0,30.02,West,277,3.0,6.0,42,0.00,,,0.00,,2013-01-23 14:52:00,
2013-01-23 08:02:00,30.0,11.0,30.02,SSE,166,3.0,5.0,44,0.00,,,0.00,,2013-01-23 15:02:00,
2013-01-23 08:12:00,30.0,11.0,30.02,SSE,166,3.0,5.0,44,0.00,,,0.00,,2013-01-23 15:12:00,
2013-01-23 08:22:00,30.0,11.0,30.02,SSE,166,3.0,5.0,44,0.00,,,0.00,,2013-01-23 15:22:00,
2013-01-23 08:33:00,27.0,11.0,30.03,NW,315,0.0,3.0,51,0.00,,,0.00,,2013-01-23 15:33:00,
2013-01-23 09:02:00,28.0,14.0,30.03,SSE,165,3.0,5.0,54,0.00,,,0.00,,2013-01-23 16:02:00,
2013-01-23 09:22:00,28.0,13.0,30.04,SW,224,4.0,5.0,53,0.00,,,0.00,,2013-01-23 16:22:00,
2013-01-23 09:32:00,30.0,14.0,30.05,SW,229,2.0,4.0,50,0.00,,,0.00,,2013-01-23 16:32:00,
2013-01-23 09:42:00,30.0,14.0,30.05,SW,229,2.0,4.0,50,0.00,,,0.00,,2013-01-23 16:42:00,
2013-01-23 09:52:00,29.0,14.0,30.05,SW,230,3.0,5.0,53,0.00,,,0.00,,2013-01-23 16:52:00,
2013-01-23 10:03:00,29.0,14.0,30.05,SW,230,0.0,5.0,54,0.00,,,0.00,,2013-01-23 17:03:00,
2013-01-23 10:12:00,29.0,14.0,30.05,SW,230,0.0,5.0,54,0.00,,,0.00,,2013-01-23 17:12:00,
2013-01-23 10:22:00,28.0,15.0,30.06,ESE,123,2.0,7.0,57,0.00,,,0.00,,2013-01-23 17:22:00,
2013-01-23 10:33:00,26.0,14.0,30.06,East,96,3.0,8.0,61,0.00,,,0.00,,2013-01-23 17:33:00,
2013-01-23 10:42:00,26.0,14.0,30.06,East,96,3.0,8.0,61,0.00,,,0.00,,2013-01-23 17:42:00,
2013-01-23 10:52:00,26.0,15.0,30.06,East,96,2.0,5.0,62,0.00,,,0.00,,2013-01-23 17:52:00,
2013-01-23 11:03:00,26.0,15.0,30.06,East,96,0.0,3.0,63,0.00,,,0.00,,2013-01-23 18:03:00,
2013-01-23 11:22:00,27.0,16.0,30.06,ENE,66,4.0,7.0,63,0.00,,,0.00,,2013-01-23 18:22:00,
2013-01-23 11:43:00,27.0,16.0,30.05,NE,34,2.0,6.0,62,0.00,,,0.00,,2013-01-23 18:43:00,
2013-01-23 11:52:00,28.0,17.0,30.05,SSW,193,2.0,9.0,62,0.00,,,0.00,,2013-01-23 18:52:00,
2013-01-23 12:02:00,28.0,16.0,30.04,East,86,5.0,10.0,61,0.00,,,0.00,,2013-01-23 19:02:00,
2013-01-23 12:12:00,28.0,16.0,30.04,East,86,5.0,10.0,61,0.00,,,0.00,,2013-01-23 19:12:00,
2013-01-23 12:22:00,29.0,16.0,30.04,ENE,64,1.0,9.0,59,0.00,,,0.00,,2013-01-23 19:22:00,
2013-01-23 12:32:00,29.0,17.0,30.03,NE,46,2.0,6.0,60,0.00,,,0.00,,2013-01-23 19:32:00,
2013-01-23 13:02:00,31.0,17.0,30.02,ESE,116,1.0,5.0,56,0.00,,,0.00,,2013-01-23 20:02:00,
2013-01-23 13:32:00,33.0,19.0,30.01,SSW,202,2.0,5.0,55,0.00,,,0.00,,2013-01-23 20:32:00,
2013-01-23 13:53:00,33.0,18.0,30.01,NNE,31,8.0,10.0,54,0.00,,,0.00,,2013-01-23 20:53:00,
2013-01-23 14:02:00,35.0,18.0,30.00,ENE,60,8.0,16.0,50,0.00,,,0.00,,2013-01-23 21:02:00,
2013-01-23 14:12:00,35.0,18.0,30.00,ENE,60,8.0,16.0,50,0.00,,,0.00,,2013-01-23 21:12:00,
2013-01-23 14:22:00,38.0,17.0,29.99,SW,225,5.0,11.0,42,0.00,,,0.00,,2013-01-23 21:22:00,
2013-01-23 14:32:00,41.0,15.0,29.99,ESE,115,5.0,10.0,34,0.00,,,0.00,,2013-01-23 21:32:00,
2013-01-23 14:42:00,41.0,15.0,29.99,ESE,115,5.0,10.0,34,0.00,,,0.00,,2013-01-23 21:42:00,
2013-01-23 14:53:00,37.0,18.0,30.00,SSE,163,5.0,9.0,45,0.00,,,0.00,,2013-01-23 21:53:00,
2013-01-23 15:02:00,48.0,10.0,29.99,South,190,6.0,13.0,21,0.00,,,0.00,,2013-01-23 22:02:00,
2013-01-23 15:22:00,38.0,18.0,29.99,ENE,59,4.0,10.0,44,0.00,,,0.00,,2013-01-23 22:22:00,
2013-01-23 15:33:00,36.0,19.0,29.99,East,87,8.0,9.0,50,0.00,,,0.00,,2013-01-23 22:33:00,
2013-01-23 15:42:00,36.0,19.0,29.99,East,87,8.0,9.0,50,0.00,,,0.00,,2013-01-23 22:42:00,
2013-01-23 15:53:00,36.0,20.0,29.99,East,101,6.0,8.0,51,0.00,,,0.00,,2013-01-23 22:53:00,
2013-01-23 16:02:00,36.0,20.0,29.98,East,99,6.0,8.0,51,0.00,,,0.00,,2013-01-23 23:02:00,
2013-01-23 16:12:00,36.0,20.0,29.98,East,99,6.0,8.0,51,0.00,,,0.00,,2013-01-23 23:12:00,
2013-01-23 16:22:00,35.0,20.0,29.97,ESE,111,7.0,10.0,53,0.00,,,0.00,,2013-01-23 23:22:00,
2013-01-23 16:33:00,34.0,20.0,29.96,ENE,78,8.0,11.0,55,0.00,,,0.00,,2013-01-23 23:33:00,
2013-01-23 16:42:00,34.0,20.0,29.96,ENE,78,8.0,11.0,55,0.00,,,0.00,,2013-01-23 23:42:00,
2013-01-23 16:53:00,33.0,19.0,29.98,WSW,243,3.0,6.0,56,0.00,,,0.00,,2013-01-23 23:53:00,
2013-01-23 17:02:00,33.0,19.0,29.97,ENE,59,3.0,7.0,57,0.00,,,0.00,,2013-01-24 00:02:00,
2013-01-23 17:12:00,33.0,19.0,29.97,ENE,59,3.0,7.0,57,0.00,,,0.00,,2013-01-24 00:12:00,
2013-01-23 17:22:00,32.0,19.0,29.97,East,92,3.0,10.0,57,0.00,,,0.00,,2013-01-24 00:22:00,
2013-01-23 17:32:00,40.0,14.0,29.96,SE,135,11.0,18.0,34,0.00,,,0.00,,2013-01-24 00:32:00,
2013-01-23 17:42:00,40.0,14.0,29.96,SE,135,11.0,18.0,34,0.00,,,0.00,,2013-01-24 00:42:00,
2013-01-23 17:53:00,47.0,10.0,29.96,SE,137,10.0,23.0,22,0.00,,,0.00,,2013-01-24 00:53:00,
2013-01-23 18:02:00,50.0,7.0,29.96,SE,138,13.0,24.0,17,0.00,,,0.00,,2013-01-24 01:02:00,
2013-01-23 18:22:00,51.0,6.0,29.96,SW,224,16.0,30.0,16,0.00,,,0.00,,2013-01-24 01:22:00,
2013-01-23 18:32:00,51.0,8.0,29.96,ESE,113,12.0,25.0,17,0.00,,,0.00,,2013-01-24 01:32:00,
2013-01-23 18:52:00,49.0,7.0,29.95,SE,128,15.0,24.0,18,0.00,,,0.00,,2013-01-24 01:52:00,
2013-01-23 19:02:00,50.0,7.0,29.93,SE,129,16.0,34.0,17,0.00,,,0.00,,2013-01-24 02:02:00,
2013-01-23 19:11:00,50.0,7.0,29.93,SE,129,16.0,34.0,17,0.00,,,0.00,,2013-01-24 02:11:00,
2013-01-23 19:22:00,51.0,8.0,29.96,SSW,213,9.0,11.0,17,0.00,,,0.00,,2013-01-24 02:22:00,
2013-01-23 19:32:00,50.0,7.0,29.95,WNW,290,5.0,25.0,17,0.00,,,0.00,,2013-01-24 02:32:00,
2013-01-23 19:42:00,50.0,7.0,29.95,WNW,290,5.0,25.0,17,0.00,,,0.00,,2013-01-24 02:42:00,
2013-01-23 19:52:00,50.0,7.0,29.95,WNW,290,5.0,25.0,17,0.00,,,0.00,,2013-01-24 02:52:00,
2013-01-23 20:02:00,50.0,7.0,29.93,SSW,211,17.0,31.0,17,0.00,,,0.00,,2013-01-24 03:02:00,
2013-01-23 20:11:00,50.0,7.0,29.93,SSW,211,17.0,31.0,17,0.00,,,0.00,,2013-01-24 03:11:00,
2013-01-23 20:22:00,50.0,8.0,29.93,SW,225,16.0,32.0,18,0.00,,,0.00,,2013-01-24 03:22:00,
2013-01-23 20:32:00,49.0,7.0,29.94,SSW,211,16.0,26.0,18,0.00,,,0.00,,2013-01-24 03:32:00,
2013-01-23 20:42:00,49.0,7.0,29.94,SSW,211,16.0,26.0,18,0.00,,,0.00,,2013-01-24 03:42:00,
2013-01-23 20:52:00,49.0,7.0,29.95,WSW,239,17.0,29.0,18,0.00,,,0.00,,2013-01-24 03:52:00,
2013-01-23 21:02:00,48.0,9.0,29.96,WSW,258,8.0,22.0,20,0.00,,,0.00,,2013-01-24 04:02:00,
2013-01-23 21:12:00,48.0,9.0,29.96,WSW,258,8.0,22.0,20,0.00,,,0.00,,2013-01-24 04:12:00,
2013-01-23 21:22:00,48.0,9.0,29.96,West,263,11.0,22.0,20,0.00,,,0.00,,2013-01-24 04:22:00,
2013-01-23 21:32:00,47.0,7.0,29.95,WNW,294,6.0,17.0,19,0.00,,,0.00,,2013-01-24 04:32:00,
2013-01-23 21:42:00,47.0,7.0,29.95,WNW,294,6.0,17.0,19,0.00,,,0.00,,2013-01-24 04:42:00,
2013-01-23 21:52:00,48.0,8.0,29.95,WNW,302,7.0,10.0,19,0.00,,,0.00,,2013-01-24 04:52:00,
2013-01-23 22:03:00,48.0,7.0,29.96,NW,321,5.0,11.0,18,0.00,,,0.00,,2013-01-24 05:03:00,
2013-01-23 22:12:00,48.0,7.0,29.96,NW,321,5.0,11.0,18,0.00,,,0.00,,2013-01-24 05:12:00,
2013-01-23 22:22:00,45.0,8.0,29.95,WNW,293,3.0,8.0,22,0.00,,,0.00,,2013-01-24 05:22:00,
2013-01-23 22:32:00,40.0,12.0,29.95,WNW,285,2.0,5.0,31,0.00,,,0.00,,2013-01-24 05:32:00,
2013-01-23 22:42:00,40.0,12.0,29.95,WNW,285,2.0,5.0,31,0.00,,,0.00,,2013-01-24 05:42:00,
2013-01-23 22:53:00,38.0,10.0,29.93,NNE,30,4.0,7.0,31,0.00,,,0.00,,2013-01-24 05:53:00,
2013-01-23 23:02:00,41.0,11.0,29.94,West,273,1.0,7.0,29,0.00,,,0.00,,2013-01-24 06:02:00,
2013-01-23 23:12:00,41.0,11.0,29.94,West,273,1.0,7.0,29,0.00,,,0.00,,2013-01-24 06:12:00,
2013-01-23 23:22:00,45.0,10.0,29.93,East,82,4.0,30.0,24,0.00,,,0.00,,2013-01-24 06:22:00,
2013-01-23 23:32:00,45.0,9.0,29.91,NNE,32,3.0,9.0,23,0.00,,,0.00,,2013-01-24 06:32:00,
2013-01-23 23:42:00,45.0,9.0,29.91,NNE,32,3.0,9.0,23,0.00,,,0.00,,2013-01-24 06:42:00,
2013-01-23 23:52:00,44.0,9.0,29.91,West,274,6.0,12.0,23,0.00,,,0.00,,2013-01-24 06:52:00,